sensor_id;sensor_type;location;lat;lon;timestamp;P1;durP1;ratioP1;P2;durP2;ratioP2
37877;SDS011;23715;53.652;8.516;2023-06-14T00:03:07;10.55;;;7.42;;
37877;SDS011;23715;53.652;8.516;2023-06-14T00:08:09;8.50;;;7.72;;
37877;SDS011;23715;53.652;8.516;2023-06-14T00:13:12;11.25;;;7.20;;
37877;SDS011;23715;53.652;8.516;2023-06-14T00:18:18;9.95;;;7.92;;
37877;SDS011;23715;53.652;8.516;2023-06-14T00:23:20;8.13;;;7.22;;
37877;SDS011;23715;53.652;8.516;2023-06-14T00:28:25;10.15;;;7.47;;
37877;SDS011;23715;53.652;8.516;2023-06-14T00:33:30;9.13;;;7.85;;
37877;SDS011;23715;53.652;8.516;2023-06-14T00:38:28;9.05;;;8.13;;
37877;SDS011;23715;53.652;8.516;2023-06-14T00:43:33;8.75;;;8.08;;
37877;SDS011;23715;53.652;8.516;2023-06-14T00:48:36;8.23;;;7.60;;
37877;SDS011;23715;53.652;8.516;2023-06-14T00:53:43;9.55;;;8.40;;
37877;SDS011;23715;53.652;8.516;2023-06-14T00:58:45;8.83;;;7.90;;
37877;SDS011;23715;53.652;8.516;2023-06-14T01:03:50;13.93;;;7.70;;
37877;SDS011;23715;53.652;8.516;2023-06-14T01:08:51;9.78;;;8.63;;
37877;SDS011;23715;53.652;8.516;2023-06-14T01:14:01;8.83;;;7.60;;
37877;SDS011;23715;53.652;8.516;2023-06-14T01:19:02;9.78;;;8.93;;
37877;SDS011;23715;53.652;8.516;2023-06-14T01:24:08;9.15;;;8.25;;
37877;SDS011;23715;53.652;8.516;2023-06-14T01:29:18;9.15;;;8.18;;
37877;SDS011;23715;53.652;8.516;2023-06-14T01:34:20;10.82;;;8.50;;
37877;SDS011;23715;53.652;8.516;2023-06-14T01:39:22;10.25;;;8.65;;
37877;SDS011;23715;53.652;8.516;2023-06-14T01:44:23;9.85;;;8.95;;
37877;SDS011;23715;53.652;8.516;2023-06-14T01:49:33;13.25;;;8.58;;
37877;SDS011;23715;53.652;8.516;2023-06-14T01:54:35;12.15;;;8.83;;
37877;SDS011;23715;53.652;8.516;2023-06-14T01:59:37;11.15;;;8.08;;
37877;SDS011;23715;53.652;8.516;2023-06-14T02:04:39;9.03;;;8.13;;
37877;SDS011;23715;53.652;8.516;2023-06-14T02:09:45;8.55;;;7.75;;
37877;SDS011;23715;53.652;8.516;2023-06-14T02:14:54;9.80;;;8.88;;
37877;SDS011;23715;53.652;8.516;2023-06-14T02:19:54;9.75;;;8.75;;
37877;SDS011;23715;53.652;8.516;2023-06-14T02:24:57;10.50;;;8.20;;
37877;SDS011;23715;53.652;8.516;2023-06-14T02:35:04;10.60;;;8.45;;
37877;SDS011;23715;53.652;8.516;2023-06-14T02:40:09;10.50;;;7.87;;
37877;SDS011;23715;53.652;8.516;2023-06-14T02:45:12;9.60;;;8.65;;
37877;SDS011;23715;53.652;8.516;2023-06-14T02:50:13;12.03;;;8.10;;
37877;SDS011;23715;53.652;8.516;2023-06-14T02:55:18;11.00;;;8.68;;
37877;SDS011;23715;53.652;8.516;2023-06-14T03:00:19;10.60;;;8.20;;
37877;SDS011;23715;53.652;8.516;2023-06-14T03:05:21;14.03;;;7.78;;
37877;SDS011;23715;53.652;8.516;2023-06-14T03:10:23;9.55;;;8.30;;
37877;SDS011;23715;53.652;8.516;2023-06-14T03:15:25;10.82;;;8.20;;
37877;SDS011;23715;53.652;8.516;2023-06-14T03:20:35;9.75;;;8.75;;
37877;SDS011;23715;53.652;8.516;2023-06-14T03:25:41;9.05;;;8.20;;
37877;SDS011;23715;53.652;8.516;2023-06-14T03:30:44;8.70;;;7.80;;
37877;SDS011;23715;53.652;8.516;2023-06-14T03:35:46;8.83;;;7.83;;
37877;SDS011;23715;53.652;8.516;2023-06-14T03:40:48;8.68;;;7.33;;
37877;SDS011;23715;53.652;8.516;2023-06-14T03:45:48;13.13;;;7.78;;
37877;SDS011;23715;53.652;8.516;2023-06-14T03:50:58;7.87;;;7.00;;
37877;SDS011;23715;53.652;8.516;2023-06-14T03:55:55;10.10;;;7.90;;
37877;SDS011;23715;53.652;8.516;2023-06-14T04:01:02;13.38;;;7.70;;
37877;SDS011;23715;53.652;8.516;2023-06-14T04:11:07;9.55;;;7.37;;
37877;SDS011;23715;53.652;8.516;2023-06-14T04:16:13;14.83;;;7.78;;
37877;SDS011;23715;53.652;8.516;2023-06-14T04:21:16;13.18;;;7.60;;
37877;SDS011;23715;53.652;8.516;2023-06-14T04:26:21;11.90;;;7.53;;
37877;SDS011;23715;53.652;8.516;2023-06-14T04:31:30;8.80;;;6.87;;
37877;SDS011;23715;53.652;8.516;2023-06-14T04:36:36;12.50;;;8.05;;
37877;SDS011;23715;53.652;8.516;2023-06-14T04:41:40;8.58;;;7.25;;
37877;SDS011;23715;53.652;8.516;2023-06-14T04:46:40;14.20;;;7.72;;
37877;SDS011;23715;53.652;8.516;2023-06-14T04:51:50;11.28;;;7.55;;
37877;SDS011;23715;53.652;8.516;2023-06-14T04:56:58;11.60;;;8.58;;
37877;SDS011;23715;53.652;8.516;2023-06-14T05:02:02;12.07;;;8.63;;
37877;SDS011;23715;53.652;8.516;2023-06-14T05:07:11;12.85;;;8.20;;
37877;SDS011;23715;53.652;8.516;2023-06-14T05:12:11;11.25;;;8.20;;
37877;SDS011;23715;53.652;8.516;2023-06-14T05:17:16;10.68;;;8.33;;
37877;SDS011;23715;53.652;8.516;2023-06-14T05:22:17;15.32;;;8.23;;
37877;SDS011;23715;53.652;8.516;2023-06-14T05:27:18;13.58;;;8.03;;
37877;SDS011;23715;53.652;8.516;2023-06-14T05:32:19;14.07;;;8.00;;
37877;SDS011;23715;53.652;8.516;2023-06-14T05:37:26;15.15;;;8.05;;
37877;SDS011;23715;53.652;8.516;2023-06-14T05:42:25;11.60;;;8.18;;
37877;SDS011;23715;53.652;8.516;2023-06-14T05:47:32;9.98;;;8.70;;
37877;SDS011;23715;53.652;8.516;2023-06-14T05:52:33;11.22;;;7.45;;
37877;SDS011;23715;53.652;8.516;2023-06-14T05:57:37;11.35;;;7.53;;
37877;SDS011;23715;53.652;8.516;2023-06-14T06:02:41;8.45;;;7.45;;
37877;SDS011;23715;53.652;8.516;2023-06-14T06:07:42;12.23;;;8.03;;
37877;SDS011;23715;53.652;8.516;2023-06-14T06:12:45;10.90;;;7.53;;
37877;SDS011;23715;53.652;8.516;2023-06-14T06:17:51;8.90;;;7.33;;
37877;SDS011;23715;53.652;8.516;2023-06-14T06:22:51;11.40;;;7.22;;
37877;SDS011;23715;53.652;8.516;2023-06-14T06:27:54;11.18;;;7.67;;
37877;SDS011;23715;53.652;8.516;2023-06-14T06:32:55;9.18;;;8.00;;
37877;SDS011;23715;53.652;8.516;2023-06-14T06:38:03;14.50;;;9.23;;
37877;SDS011;23715;53.652;8.516;2023-06-14T06:42:59;13.88;;;8.83;;
37877;SDS011;23715;53.652;8.516;2023-06-14T06:48:04;10.45;;;9.08;;
37877;SDS011;23715;53.652;8.516;2023-06-14T06:53:11;10.13;;;9.23;;
37877;SDS011;23715;53.652;8.516;2023-06-14T06:58:11;9.37;;;8.57;;
37877;SDS011;23715;53.652;8.516;2023-06-14T07:03:16;11.83;;;9.18;;
37877;SDS011;23715;53.652;8.516;2023-06-14T07:08:18;11.97;;;9.80;;
37877;SDS011;23715;53.652;8.516;2023-06-14T07:13:20;11.08;;;9.55;;
37877;SDS011;23715;53.652;8.516;2023-06-14T07:18:30;10.90;;;9.78;;
37877;SDS011;23715;53.652;8.516;2023-06-14T07:23:28;13.95;;;9.73;;
37877;SDS011;23715;53.652;8.516;2023-06-14T07:28:29;10.63;;;9.65;;
37877;SDS011;23715;53.652;8.516;2023-06-14T07:33:31;10.20;;;9.30;;
37877;SDS011;23715;53.652;8.516;2023-06-14T07:38:32;11.68;;;10.13;;
37877;SDS011;23715;53.652;8.516;2023-06-14T07:43:34;11.57;;;10.58;;
37877;SDS011;23715;53.652;8.516;2023-06-14T07:48:43;10.90;;;10.20;;
37877;SDS011;23715;53.652;8.516;2023-06-14T07:53:48;12.35;;;11.18;;
37877;SDS011;23715;53.652;8.516;2023-06-14T07:58:50;12.10;;;10.93;;
37877;SDS011;23715;53.652;8.516;2023-06-14T08:03:52;13.25;;;10.60;;
37877;SDS011;23715;53.652;8.516;2023-06-14T08:09:00;12.55;;;11.30;;
37877;SDS011;23715;53.652;8.516;2023-06-14T08:14:01;12.73;;;11.73;;
37877;SDS011;23715;53.652;8.516;2023-06-14T08:19:05;12.33;;;11.30;;
37877;SDS011;23715;53.652;8.516;2023-06-14T08:24:07;11.88;;;10.98;;
37877;SDS011;23715;53.652;8.516;2023-06-14T08:29:10;11.57;;;10.55;;
37877;SDS011;23715;53.652;8.516;2023-06-14T08:39:16;11.57;;;10.53;;
37877;SDS011;23715;53.652;8.516;2023-06-14T08:44:20;12.73;;;11.53;;
37877;SDS011;23715;53.652;8.516;2023-06-14T08:49:22;16.00;;;12.25;;
37877;SDS011;23715;53.652;8.516;2023-06-14T08:54:32;11.97;;;10.78;;
37877;SDS011;23715;53.652;8.516;2023-06-14T08:59:47;13.08;;;11.97;;
37877;SDS011;23715;53.652;8.516;2023-06-14T09:04:38;13.78;;;12.45;;
37877;SDS011;23715;53.652;8.516;2023-06-14T09:09:42;13.08;;;11.78;;
37877;SDS011;23715;53.652;8.516;2023-06-14T09:14:44;13.10;;;11.90;;
37877;SDS011;23715;53.652;8.516;2023-06-14T09:19:46;13.10;;;11.95;;
37877;SDS011;23715;53.652;8.516;2023-06-14T09:24:56;12.30;;;10.93;;
37877;SDS011;23715;53.652;8.516;2023-06-14T09:29:56;12.20;;;10.98;;
37877;SDS011;23715;53.652;8.516;2023-06-14T09:35:03;11.15;;;10.15;;
37877;SDS011;23715;53.652;8.516;2023-06-14T09:40:05;12.78;;;11.78;;
37877;SDS011;23715;53.652;8.516;2023-06-14T09:45:06;12.55;;;11.73;;
37877;SDS011;23715;53.652;8.516;2023-06-14T09:50:06;11.25;;;10.20;;
37877;SDS011;23715;53.652;8.516;2023-06-14T09:55:13;12.20;;;11.20;;
37877;SDS011;23715;53.652;8.516;2023-06-14T10:00:15;11.43;;;10.30;;
37877;SDS011;23715;53.652;8.516;2023-06-14T10:05:18;10.98;;;9.90;;
37877;SDS011;23715;53.652;8.516;2023-06-14T10:10:25;11.20;;;10.40;;
37877;SDS011;23715;53.652;8.516;2023-06-14T10:20:48;11.68;;;10.78;;
37877;SDS011;23715;53.652;8.516;2023-06-14T10:25:56;12.37;;;11.48;;
37877;SDS011;23715;53.652;8.516;2023-06-14T10:31:02;10.85;;;10.03;;
37877;SDS011;23715;53.652;8.516;2023-06-14T10:36:29;10.78;;;9.88;;
37877;SDS011;23715;53.652;8.516;2023-06-14T10:41:34;11.97;;;11.12;;
37877;SDS011;23715;53.652;8.516;2023-06-14T10:46:35;12.00;;;11.10;;
37877;SDS011;23715;53.652;8.516;2023-06-14T10:51:44;11.25;;;10.45;;
37877;SDS011;23715;53.652;8.516;2023-06-14T10:56:50;11.00;;;10.30;;
37877;SDS011;23715;53.652;8.516;2023-06-14T11:02:13;11.85;;;11.08;;
37877;SDS011;23715;53.652;8.516;2023-06-14T11:12:47;10.45;;;9.73;;
37877;SDS011;23715;53.652;8.516;2023-06-14T11:17:50;11.78;;;10.78;;
37877;SDS011;23715;53.652;8.516;2023-06-14T11:22:58;10.25;;;9.58;;
37877;SDS011;23715;53.652;8.516;2023-06-14T11:28:00;11.10;;;10.08;;
37877;SDS011;23715;53.652;8.516;2023-06-14T11:33:09;11.57;;;10.75;;
37877;SDS011;23715;53.652;8.516;2023-06-14T11:38:10;11.48;;;10.68;;
37877;SDS011;23715;53.652;8.516;2023-06-14T11:43:12;11.38;;;10.28;;
37877;SDS011;23715;53.652;8.516;2023-06-14T11:48:15;10.38;;;9.58;;
37877;SDS011;23715;53.652;8.516;2023-06-14T11:53:19;10.45;;;9.68;;
37877;SDS011;23715;53.652;8.516;2023-06-14T11:58:19;11.00;;;10.25;;
37877;SDS011;23715;53.652;8.516;2023-06-14T12:03:28;11.53;;;10.82;;
37877;SDS011;23715;53.652;8.516;2023-06-14T12:08:38;10.32;;;9.50;;
37877;SDS011;23715;53.652;8.516;2023-06-14T12:13:39;11.33;;;10.43;;
37877;SDS011;23715;53.652;8.516;2023-06-14T12:18:41;10.80;;;10.10;;
37877;SDS011;23715;53.652;8.516;2023-06-14T12:23:51;12.05;;;10.95;;
37877;SDS011;23715;53.652;8.516;2023-06-14T12:28:55;10.98;;;9.93;;
37877;SDS011;23715;53.652;8.516;2023-06-14T12:33:53;10.98;;;10.05;;
37877;SDS011;23715;53.652;8.516;2023-06-14T12:39:02;10.90;;;9.88;;
37877;SDS011;23715;53.652;8.516;2023-06-14T12:44:01;11.12;;;9.88;;
37877;SDS011;23715;53.652;8.516;2023-06-14T12:49:08;10.60;;;9.95;;
37877;SDS011;23715;53.652;8.516;2023-06-14T12:54:21;11.65;;;10.85;;
37877;SDS011;23715;53.652;8.516;2023-06-14T12:59:23;10.53;;;9.48;;
37877;SDS011;23715;53.652;8.516;2023-06-14T13:04:28;10.38;;;9.48;;
37877;SDS011;23715;53.652;8.516;2023-06-14T13:09:35;11.03;;;10.23;;
37877;SDS011;23715;53.652;8.516;2023-06-14T13:14:30;10.93;;;10.32;;
37877;SDS011;23715;53.652;8.516;2023-06-14T13:19:34;11.73;;;10.82;;
37877;SDS011;23715;53.652;8.516;2023-06-14T13:24:38;10.27;;;9.23;;
37877;SDS011;23715;53.652;8.516;2023-06-14T13:29:40;10.90;;;10.20;;
37877;SDS011;23715;53.652;8.516;2023-06-14T13:34:42;10.48;;;9.88;;
37877;SDS011;23715;53.652;8.516;2023-06-14T13:39:42;11.03;;;10.20;;
37877;SDS011;23715;53.652;8.516;2023-06-14T13:44:44;11.95;;;10.93;;
37877;SDS011;23715;53.652;8.516;2023-06-14T13:49:51;10.72;;;10.03;;
37877;SDS011;23715;53.652;8.516;2023-06-14T13:55:04;10.98;;;9.85;;
37877;SDS011;23715;53.652;8.516;2023-06-14T13:59:55;10.68;;;9.75;;
37877;SDS011;23715;53.652;8.516;2023-06-14T14:04:59;10.93;;;10.03;;
37877;SDS011;23715;53.652;8.516;2023-06-14T14:10:01;11.28;;;10.40;;
37877;SDS011;23715;53.652;8.516;2023-06-14T14:15:02;10.60;;;9.88;;
37877;SDS011;23715;53.652;8.516;2023-06-14T14:20:12;10.90;;;10.10;;
37877;SDS011;23715;53.652;8.516;2023-06-14T14:25:16;11.60;;;10.80;;
37877;SDS011;23715;53.652;8.516;2023-06-14T14:30:23;12.25;;;11.08;;
37877;SDS011;23715;53.652;8.516;2023-06-14T14:35:24;10.70;;;9.90;;
37877;SDS011;23715;53.652;8.516;2023-06-14T14:40:26;10.50;;;9.75;;
37877;SDS011;23715;53.652;8.516;2023-06-14T14:45:29;10.32;;;9.53;;
37877;SDS011;23715;53.652;8.516;2023-06-14T14:50:34;10.75;;;9.80;;
37877;SDS011;23715;53.652;8.516;2023-06-14T14:55:37;12.63;;;9.55;;
37877;SDS011;23715;53.652;8.516;2023-06-14T15:00:39;10.90;;;9.88;;
37877;SDS011;23715;53.652;8.516;2023-06-14T15:05:40;11.35;;;9.25;;
37877;SDS011;23715;53.652;8.516;2023-06-14T15:10:42;10.47;;;9.67;;
37877;SDS011;23715;53.652;8.516;2023-06-14T15:15:49;10.08;;;9.08;;
37877;SDS011;23715;53.652;8.516;2023-06-14T15:20:55;11.65;;;8.83;;
37877;SDS011;23715;53.652;8.516;2023-06-14T15:26:05;11.73;;;9.70;;
37877;SDS011;23715;53.652;8.516;2023-06-14T15:31:07;11.00;;;10.20;;
37877;SDS011;23715;53.652;8.516;2023-06-14T15:36:10;10.07;;;9.20;;
37877;SDS011;23715;53.652;8.516;2023-06-14T15:41:16;12.85;;;9.75;;
37877;SDS011;23715;53.652;8.516;2023-06-14T15:46:13;12.30;;;10.13;;
37877;SDS011;23715;53.652;8.516;2023-06-14T15:51:20;10.43;;;9.33;;
37877;SDS011;23715;53.652;8.516;2023-06-14T15:56:24;11.15;;;10.38;;
37877;SDS011;23715;53.652;8.516;2023-06-14T16:01:28;10.43;;;9.55;;
37877;SDS011;23715;53.652;8.516;2023-06-14T16:06:30;10.18;;;9.18;;
37877;SDS011;23715;53.652;8.516;2023-06-14T16:11:32;9.85;;;9.03;;
37877;SDS011;23715;53.652;8.516;2023-06-14T16:16:40;9.60;;;8.80;;
37877;SDS011;23715;53.652;8.516;2023-06-14T16:21:48;10.58;;;9.78;;
37877;SDS011;23715;53.652;8.516;2023-06-14T16:26:48;12.68;;;9.60;;
37877;SDS011;23715;53.652;8.516;2023-06-14T16:37:03;10.32;;;9.50;;
37877;SDS011;23715;53.652;8.516;2023-06-14T16:42:09;10.78;;;9.80;;
37877;SDS011;23715;53.652;8.516;2023-06-14T16:52:30;12.00;;;10.13;;
37877;SDS011;23715;53.652;8.516;2023-06-14T16:57:26;10.63;;;9.70;;
37877;SDS011;23715;53.652;8.516;2023-06-14T17:02:28;10.18;;;9.18;;
37877;SDS011;23715;53.652;8.516;2023-06-14T17:07:32;11.65;;;8.50;;
37877;SDS011;23715;53.652;8.516;2023-06-14T17:12:35;10.98;;;9.13;;
37877;SDS011;23715;53.652;8.516;2023-06-14T17:17:44;12.10;;;9.35;;
37877;SDS011;23715;53.652;8.516;2023-06-14T17:22:43;9.67;;;8.67;;
37877;SDS011;23715;53.652;8.516;2023-06-14T17:27:51;9.43;;;8.55;;
37877;SDS011;23715;53.652;8.516;2023-06-14T17:32:53;10.15;;;9.33;;
37877;SDS011;23715;53.652;8.516;2023-06-14T17:38:00;10.38;;;9.48;;
37877;SDS011;23715;53.652;8.516;2023-06-14T17:43:09;10.78;;;9.70;;
37877;SDS011;23715;53.652;8.516;2023-06-14T17:48:07;10.78;;;9.15;;
37877;SDS011;23715;53.652;8.516;2023-06-14T17:53:15;10.68;;;9.28;;
37877;SDS011;23715;53.652;8.516;2023-06-14T17:58:17;9.80;;;9.00;;
37877;SDS011;23715;53.652;8.516;2023-06-14T18:03:26;10.82;;;9.45;;
37877;SDS011;23715;53.652;8.516;2023-06-14T18:08:28;11.10;;;10.10;;
37877;SDS011;23715;53.652;8.516;2023-06-14T18:13:42;10.28;;;9.20;;
37877;SDS011;23715;53.652;8.516;2023-06-14T18:18:53;10.32;;;9.25;;
37877;SDS011;23715;53.652;8.516;2023-06-14T18:24:00;10.45;;;9.30;;
37877;SDS011;23715;53.652;8.516;2023-06-14T18:29:10;10.72;;;9.35;;
37877;SDS011;23715;53.652;8.516;2023-06-14T18:34:10;11.30;;;10.25;;
37877;SDS011;23715;53.652;8.516;2023-06-14T18:39:17;10.00;;;9.13;;
37877;SDS011;23715;53.652;8.516;2023-06-14T18:44:20;9.85;;;8.85;;
37877;SDS011;23715;53.652;8.516;2023-06-14T18:49:24;11.03;;;9.30;;
37877;SDS011;23715;53.652;8.516;2023-06-14T18:59:36;9.55;;;8.70;;
37877;SDS011;23715;53.652;8.516;2023-06-14T19:04:42;10.20;;;9.30;;
37877;SDS011;23715;53.652;8.516;2023-06-14T19:09:51;10.50;;;8.50;;
37877;SDS011;23715;53.652;8.516;2023-06-14T19:14:55;9.20;;;8.40;;
37877;SDS011;23715;53.652;8.516;2023-06-14T19:20:07;9.50;;;8.70;;
37877;SDS011;23715;53.652;8.516;2023-06-14T19:25:07;9.53;;;8.60;;
37877;SDS011;23715;53.652;8.516;2023-06-14T19:30:12;9.60;;;8.87;;
37877;SDS011;23715;53.652;8.516;2023-06-14T19:35:17;10.30;;;9.33;;
37877;SDS011;23715;53.652;8.516;2023-06-14T19:40:20;9.88;;;8.90;;
37877;SDS011;23715;53.652;8.516;2023-06-14T19:50:22;9.93;;;8.97;;
37877;SDS011;23715;53.652;8.516;2023-06-14T19:55:25;8.73;;;8.00;;
37877;SDS011;23715;53.652;8.516;2023-06-14T20:00:27;10.72;;;7.60;;
37877;SDS011;23715;53.652;8.516;2023-06-14T20:05:29;9.03;;;8.10;;
37877;SDS011;23715;53.652;8.516;2023-06-14T20:10:34;9.03;;;8.20;;
37877;SDS011;23715;53.652;8.516;2023-06-14T20:15:36;10.35;;;8.00;;
37877;SDS011;23715;53.652;8.516;2023-06-14T20:20:39;8.95;;;8.25;;
37877;SDS011;23715;53.652;8.516;2023-06-14T20:25:46;9.08;;;8.18;;
37877;SDS011;23715;53.652;8.516;2023-06-14T20:30:48;9.43;;;8.60;;
37877;SDS011;23715;53.652;8.516;2023-06-14T20:35:50;10.55;;;9.58;;
37877;SDS011;23715;53.652;8.516;2023-06-14T20:40:55;12.33;;;9.27;;
37877;SDS011;23715;53.652;8.516;2023-06-14T20:46:00;9.78;;;8.80;;
37877;SDS011;23715;53.652;8.516;2023-06-14T20:51:00;10.17;;;9.37;;
37877;SDS011;23715;53.652;8.516;2023-06-14T20:56:02;10.10;;;9.40;;
37877;SDS011;23715;53.652;8.516;2023-06-14T21:01:09;10.35;;;8.93;;
37877;SDS011;23715;53.652;8.516;2023-06-14T21:06:15;11.97;;;8.80;;
37877;SDS011;23715;53.652;8.516;2023-06-14T21:11:21;10.60;;;9.70;;
37877;SDS011;23715;53.652;8.516;2023-06-14T21:16:26;12.45;;;9.98;;
37877;SDS011;23715;53.652;8.516;2023-06-14T21:21:22;10.35;;;9.43;;
37877;SDS011;23715;53.652;8.516;2023-06-14T21:26:33;10.33;;;9.27;;
37877;SDS011;23715;53.652;8.516;2023-06-14T21:31:29;10.10;;;9.20;;
37877;SDS011;23715;53.652;8.516;2023-06-14T21:36:37;10.65;;;9.63;;
37877;SDS011;23715;53.652;8.516;2023-06-14T21:41:37;10.08;;;9.20;;
37877;SDS011;23715;53.652;8.516;2023-06-14T21:46:40;10.40;;;9.55;;
37877;SDS011;23715;53.652;8.516;2023-06-14T21:51:42;9.70;;;8.90;;
37877;SDS011;23715;53.652;8.516;2023-06-14T21:56:48;10.00;;;9.18;;
37877;SDS011;23715;53.652;8.516;2023-06-14T22:01:44;9.90;;;9.00;;
37877;SDS011;23715;53.652;8.516;2023-06-14T22:06:44;13.50;;;8.75;;
37877;SDS011;23715;53.652;8.516;2023-06-14T22:11:46;9.90;;;8.98;;
37877;SDS011;23715;53.652;8.516;2023-06-14T22:17:06;9.93;;;9.03;;
37877;SDS011;23715;53.652;8.516;2023-06-14T22:22:00;11.28;;;8.95;;
37877;SDS011;23715;53.652;8.516;2023-06-14T22:27:00;13.85;;;9.33;;
37877;SDS011;23715;53.652;8.516;2023-06-14T22:32:09;9.88;;;8.70;;
37877;SDS011;23715;53.652;8.516;2023-06-14T22:37:06;9.88;;;8.88;;
37877;SDS011;23715;53.652;8.516;2023-06-14T22:42:07;11.03;;;9.33;;
37877;SDS011;23715;53.652;8.516;2023-06-14T22:47:09;9.93;;;9.08;;
37877;SDS011;23715;53.652;8.516;2023-06-14T22:52:13;10.58;;;9.68;;
37877;SDS011;23715;53.652;8.516;2023-06-14T22:57:14;9.98;;;8.78;;
37877;SDS011;23715;53.652;8.516;2023-06-14T23:07:14;11.45;;;9.00;;
37877;SDS011;23715;53.652;8.516;2023-06-14T23:12:16;12.05;;;9.08;;
37877;SDS011;23715;53.652;8.516;2023-06-14T23:17:18;9.23;;;8.40;;
37877;SDS011;23715;53.652;8.516;2023-06-14T23:22:23;10.85;;;9.28;;
37877;SDS011;23715;53.652;8.516;2023-06-14T23:27:27;10.28;;;9.28;;
37877;SDS011;23715;53.652;8.516;2023-06-14T23:32:32;14.45;;;8.83;;
37877;SDS011;23715;53.652;8.516;2023-06-14T23:37:37;11.30;;;9.43;;
37877;SDS011;23715;53.652;8.516;2023-06-14T23:42:40;10.85;;;9.25;;
37877;SDS011;23715;53.652;8.516;2023-06-14T23:47:40;9.88;;;9.05;;
37877;SDS011;23715;53.652;8.516;2023-06-14T23:52:44;11.43;;;9.03;;
37877;SDS011;23715;53.652;8.516;2023-06-14T23:57:46;9.68;;;8.53;;
